Airfield :
LOGIN :

Register | Disclaimer

   EN    FR    IT 

 










Legend :    VFR   Marginal VFR   IFR   Intensive IFR   Very Intensive IFR
Visi :
Ceiling :
>= 8 km
>= 3000ft
5 to 8 km
1000 to 3000 ft
1500m to 5 km
500 to 1000 ft
800 to 1500m
200 to 500 ft
< 800m
< 200 ft
Symbols :   Thunderstorms  Fog  Heavy snow  Heavy precipitations  Wind > 20 kt
SIGMETs :     Misc.  Thunderstorms  Icing  Turbulence  Mountain Waves  Volcanic Ashes







- Airport Elevation : 197 ft
- IATA code : XOG
- Download approach charts


LFMO - Orange

CURRENT METAR :
  • 170530Z AUTO 12001KT CAVOK 18/14 Q1018 BECMG 34012KT

EXPIRED METARs :
  • 170500Z AUTO 09003KT CAVOK 17/13 Q1018 BECMG 34012KT
  • 170430Z AUTO VRB02KT CAVOK 18/14 Q1018 BECMG 34012KT
  • 170400Z AUTO 04004KT 020V100 CAVOK 19/15 Q1017 NOSIG
  • 170330Z AUTO 35005KT CAVOK 20/16 Q1017 NOSIG
  • 170300Z AUTO VRB03KT CAVOK 18/15 Q1017 NOSIG

TAF TAF LFMO
Valid from the 17 at 03:00 until the 18 at 03:00 UTC


170200Z 1703/1803 VRB02KT CAVOK
BECMG 1704/1706 34012KT
BECMG 1720/1722 VRB02KT
No reported NOTAMs for that airfield.



MET'MAP, your aeronautical weather chart ! - Copyright ORBIFLY December 2007 - Disclaimer

ORBIFLY MET'MAP TEAM :

Programming & Development : Alexandra Zaïnal
Concept & Development : Baudouin d'Aumeries
Co-Development & Prog : Marc-Olivier Méhu
Technical & hardware support : Manuel Goepfert

Contact : metmap@orbifly.com




SOURCES & CREDITS :

   NOAA